Cleveland Hopkins International Airport
KCLE : now visible

Airfield :











YOU CAN JOIN US ON...

 
LOGIN :

Register | Disclaimer

   EN    FR    IT 

 









Legend :    VFR   Marginal VFR   IFR   Intensive IFR   Very Intensive IFR
Visi :
Ceiling :
>= 8 km
>= 3000ft
5 to 8 km
1000 to 3000 ft
1500m to 5 km
500 to 1000 ft
800 to 1500m
200 to 500 ft
< 800m
< 200 ft
Symbols :   Thunderstorms  Fog  Heavy snow  Heavy precipitations  Wind > 20 kt






- Airport Elevation : 791 ft
- IATA code : CLE


KCLE - Cleveland Hopkins International

CURRENT METAR :
  • 261751Z 03007KT 10SM FEW060 FEW080 31/20 A3010 RMK AO2 SLP184 T03060200 10311 20228 58009

EXPIRED METARs :
  • 261651Z 36008KT 10SM FEW040 29/19 A3011 RMK AO2 SLP189 T02940194
  • 261551Z 24003KT 10SM FEW040 29/18 A3012 RMK AO2 SLP193 T02940183

TAF KCLE
Valid from the 26 at 18:00 until the 28 at 00:00 UTC


261728Z 2618/2724 03008KT P6SM FEW040 SCT100
FM270000 16005KT P6SM SCT200
FM271700 03008KT P6SM FEW040 SCT100
KZOB FIR / North America



MET'MAP, your aeronautical weather chart ! - Copyright ORBIFLY December 2007 - Disclaimer

ORBIFLY MET'MAP TEAM :

Programming & Development : Alexandra Zaïnal
Concept & original design : Baudouin d'Aumeries
Assistance for programming : Marc-Olivier Méhu
Technical & hardware support : Manuel Goepfert

Contact : metmap@orbifly.com




SOURCES & CREDITS :

   NOAA       Earth
Advisory